Observations for GUERNSEY AIRPORT, United Kingdom (EGJB)

EGJB 251950Z 29004KT 9999 FEW006 14/13 Q1022
EGJB 251920Z 29003KT 9999 FEW006 14/13 Q1022
EGJB 251850Z 30004KT 9999 FEW006 14/13 Q1021
EGJB 251820Z 31005KT 9999 FEW004 SCT006 15/14 Q1021 
EGJB 251750Z 29006KT 9999 FEW005 15/14 Q1021
EGJB 251720Z 30007KT 9999 FEW005 16/14 Q1021
EGJB 251650Z 31008KT 9999 SCT005 16/14 Q1021
EGJB 251620Z 31010KT 9999 SCT005 SCT016 16/15 Q1020 
EGJB 251550Z 31005KT 280V350 9999 SCT005 16/15 Q1020
EGJB 251520Z 32006KT 290V360 9999 FEW004 SCT005 16/15 Q1020 
EGJB 251450Z 32008KT 9999 FEW004 SCT006 BKN016 16/15 Q1020  
EGJB 251420Z 32007KT 9999 FEW004 SCT006 BKN016 16/15 Q1020  
EGJB 251350Z 32008KT 9999 FEW004 BKN006 BKN016 16/15 Q1020  
EGJB 251320Z 32006KT 9999 FEW004 SCT005 BKN016 17/15 Q1020  
EGJB 251250Z 31010KT 9999 FEW004 SCT006 BKN015 16/15 Q1020  
EGJB 251220Z 33007KT 9999 FEW004 SCT006 BKN013 16/15 Q1019  
EGJB 251150Z 32008KT 290V350 9999 FEW004 BKN006 BKN013 16/15 Q1019  
EGJB 251120Z 33007KT 300V010 8000 FEW004 SCT005 BKN006 16/16 Q1019  
EGJB 251050Z 33008KT 7000 FEW002 SCT004 BKN006 16/16 Q1019  
EGJB 251020Z 32008KT 9000 3500E BR FEW001 SCT002 BKN003 16/16 Q1019 
EGJB 250950Z 34005KT 5000 BR SCT001 BKN002 BKN003 16/16 Q1019   
EGJB 250920Z 34005KT 300V010 6000 2500E -DZ BR FEW000 BKN001 BKN002 16/16 Q1019 
EGJB 250850Z 33005KT 8000 FEW002 BKN003 BKN009 16/16 Q1019  
EGJB 250820Z 35005KT 320V030 2500 VCFG FEW000 BKN001 BKN002 16/15 Q1018 
EGJB 250750Z 33004KT 310V010 0700 R27/1300 FG BKN000 15/15 Q1018
EGJB 250720Z 33005KT 2000 VCFG BKN001 BKN002 15/15 Q1018
EGJB 250650Z 32005KT 1400 R27/1100 -DZ VCFG SCT000 BKN001 16/15 Q1018   
EGJB 250620Z 32005KT 0300 R27/0325 -DZ FG OVC000 15/15 Q1017
EGJB 250550Z 33004KT 0600 R27/P1500 FG BKN000 BKN001 15/15 Q1017
EGJB 250520Z 32004KT 310V010 1300 0700SE R27/1400 BCFG BR SCT000 BKN001 15/15 Q1017 
EGJB 250450Z 31004KT 0600 R27/1000 FG BKN000 15/15 Q1017
EGJB 250420Z 31005KT 1200 R27/P1500 BR SCT000 BKN001 15/15 Q1017
EGJB 250350Z 29004KT 0500 -DZ FG BKN000 15/15 Q1016 
EGJB 250320Z 31003KT 1500 BR SCT000 BKN002 15/15 Q1016  
EGJB 250250Z 30003KT 2000 -DZ BR FEW000 BKN003 15/15 Q1016